Portada
METAR-TAF:

METAR-TAF

Aeroports :

Guaymas, Mèxic

latitud: 27-58N, longitud: 110-56W, altitud: 27 m

Observació

L'informe es va fer fa 6 hores i 46 minuts, a les 01:40 UTC
Vent 10 kt del Sud-Oest
Temperatura 33°C
Humitat 36%
Pressió 1007 hPa
Visibilitat: 16.1 km
Cel clar

METAR: MMGM 190140Z 22010KT 10SM SKC 33/16 A2974

Hora: 01:26 (08:26 UTC)

Pronòstic

L'informe es va fer fa 3 hores i 43 minuts, a les 04:43 UTC
Pronòstic vàlid del 19 a les 06 UTC al 20 a les 06 UTC
Vent 5 kt del Nord/Nord-Oest
Visibilitat: 10 km
Cel clar
Evolucionant progressivament
l' 19 a les 16 UTC al 19 a les 18 UTC
Vent 15 kt del Oest/Sud-Oest
A partir de les 20 a les 0000 UTC
Vent 12 kt del Oest/Nord-Oest
Visibilitat: 10 km
Cel ennuvolat a una alçada de 20000 ft

TAF: MMGM 190443Z 1906/2006 33005KT P6SM SKC BECMG 1916/1918 24015KT FM200000 30012KT P6SM BKN200

Observacions i pronòstics meteorològics de més de 4000 aeroports (METAR i TAF).

Les estacions disponibles són els punts grocs i vermells al mapa.

Posi el ratolí al punt desitjat per veure el nom de l'estació.

Feu clic per veure les observacions i els pronòstics meteorològics.

Per canviar el mapa: feu clic els botons verds amb una creu de color negre per apropar; al botó verd amb un guió per allunyar la imatge; o en les fletxes verdes per a mapes adjacents.


METAR-TAF: